Terminal Aerodrome Forecast
Issued by NWS

Home | Current Version | Previous Version | Text Only | Print | Product List | Glossary Off
Versions: 1 2 3 4 5 6 7 8 9 10 11 12 13 14 15 16 17 18 19

000
FTUS43 KABR 211448 AAA
TAFMBG
TAF AMD
KMBG 211448Z 2115/2212 05009KT P6SM OVC020
     FM211900 07009KT P6SM OVC035
     FM212200 09010KT P6SM BKN060
     FM220500 12015G20KT P6SM OVC050
     FM221000 13018G25KT P6SM OVC025=

USA.gov is the U.S. government's official web portal to all federal, state and local government web resources and services.